sensor_id;sensor_type;location;lat;lon;timestamp;pressure;altitude;pressure_sealevel;temperature;humidity
73860;BME280;62197;51.632;13.700;2022-12-18T00:01:39;101939.31;;;-5.15;100.00
73860;BME280;62197;51.632;13.700;2022-12-18T00:04:06;101937.50;;;-5.15;100.00
73860;BME280;62197;51.632;13.700;2022-12-18T00:06:33;101944.81;;;-5.04;100.00
73860;BME280;62197;51.632;13.700;2022-12-18T00:09:00;101934.38;;;-4.96;100.00
73860;BME280;62197;51.632;13.700;2022-12-18T00:11:28;101934.91;;;-4.91;100.00
73860;BME280;62197;51.632;13.700;2022-12-18T00:13:55;101942.78;;;-4.88;100.00
73860;BME280;62197;51.632;13.700;2022-12-18T00:16:22;101949.78;;;-4.86;100.00
73860;BME280;62197;51.632;13.700;2022-12-18T00:18:49;101939.88;;;-4.98;100.00
73860;BME280;62197;51.632;13.700;2022-12-18T00:21:15;101950.66;;;-4.98;100.00
73860;BME280;62197;51.632;13.700;2022-12-18T00:23:42;101946.09;;;-4.97;100.00
73860;BME280;62197;51.632;13.700;2022-12-18T00:26:11;101945.69;;;-4.91;100.00
73860;BME280;62197;51.632;13.700;2022-12-18T00:28:36;101943.31;;;-5.08;100.00
73860;BME280;62197;51.632;13.700;2022-12-18T00:31:04;101935.75;;;-5.16;100.00
73860;BME280;62197;51.632;13.700;2022-12-18T00:33:29;101945.03;;;-5.07;100.00
73860;BME280;62197;51.632;13.700;2022-12-18T00:35:54;101924.56;;;-5.10;100.00
73860;BME280;62197;51.632;13.700;2022-12-18T00:38:24;101934.16;;;-5.06;100.00
73860;BME280;62197;51.632;13.700;2022-12-18T00:40:50;101944.06;;;-5.06;100.00
73860;BME280;62197;51.632;13.700;2022-12-18T00:43:15;101939.53;;;-5.06;100.00
73860;BME280;62197;51.632;13.700;2022-12-18T00:45:40;101938.78;;;-5.08;100.00
73860;BME280;62197;51.632;13.700;2022-12-18T00:48:06;101935.53;;;-5.13;100.00
73860;BME280;62197;51.632;13.700;2022-12-18T00:50:31;101948.03;;;-5.12;100.00
73860;BME280;62197;51.632;13.700;2022-12-18T00:52:57;101948.69;;;-5.08;100.00
73860;BME280;62197;51.632;13.700;2022-12-18T00:55:22;101934.28;;;-5.07;100.00
73860;BME280;62197;51.632;13.700;2022-12-18T00:57:47;101944.28;;;-5.09;100.00
73860;BME280;62197;51.632;13.700;2022-12-18T01:00:14;101943.53;;;-5.11;100.00
73860;BME280;62197;51.632;13.700;2022-12-18T01:02:40;101954.19;;;-5.10;100.00
73860;BME280;62197;51.632;13.700;2022-12-18T01:05:06;101957.94;;;-5.12;100.00
73860;BME280;62197;51.632;13.700;2022-12-18T01:07:31;101955.34;;;-5.14;100.00
73860;BME280;62197;51.632;13.700;2022-12-18T01:09:57;101972.16;;;-5.10;100.00
73860;BME280;62197;51.632;13.700;2022-12-18T01:12:22;101966.56;;;-5.07;100.00
73860;BME280;62197;51.632;13.700;2022-12-18T01:14:47;101953.94;;;-5.19;100.00
73860;BME280;62197;51.632;13.700;2022-12-18T01:17:13;101967.50;;;-5.21;100.00
73860;BME280;62197;51.632;13.700;2022-12-18T01:19:38;101976.88;;;-5.14;100.00
73860;BME280;62197;51.632;13.700;2022-12-18T01:22:03;101977.63;;;-5.12;100.00
73860;BME280;62197;51.632;13.700;2022-12-18T01:24:29;101982.72;;;-5.07;100.00
73860;BME280;62197;51.632;13.700;2022-12-18T01:26:54;101983.31;;;-5.16;100.00
73860;BME280;62197;51.632;13.700;2022-12-18T01:29:21;101984.41;;;-5.19;100.00
73860;BME280;62197;51.632;13.700;2022-12-18T01:31:47;101985.72;;;-5.12;100.00
73860;BME280;62197;51.632;13.700;2022-12-18T01:34:12;101976.34;;;-5.19;100.00
73860;BME280;62197;51.632;13.700;2022-12-18T01:36:39;101981.19;;;-5.11;100.00
73860;BME280;62197;51.632;13.700;2022-12-18T01:39:07;101982.25;;;-5.14;100.00
73860;BME280;62197;51.632;13.700;2022-12-18T01:41:35;101986.59;;;-5.11;100.00
73860;BME280;62197;51.632;13.700;2022-12-18T01:47:03;101988.94;;;-5.19;100.00
73860;BME280;62197;51.632;13.700;2022-12-18T01:49:28;101990.44;;;-5.15;100.00
73860;BME280;62197;51.632;13.700;2022-12-18T01:51:53;101983.56;;;-5.07;100.00
73860;BME280;62197;51.632;13.700;2022-12-18T01:54:19;101977.94;;;-5.16;100.00
73860;BME280;62197;51.632;13.700;2022-12-18T01:56:44;101992.56;;;-5.20;100.00
73860;BME280;62197;51.632;13.700;2022-12-18T01:59:10;101990.88;;;-5.21;100.00
73860;BME280;62197;51.632;13.700;2022-12-18T02:01:37;101974.47;;;-5.31;100.00
73860;BME280;62197;51.632;13.700;2022-12-18T02:04:22;101993.19;;;-5.29;100.00
73860;BME280;62197;51.632;13.700;2022-12-18T02:06:55;101986.19;;;-5.32;100.00
73860;BME280;62197;51.632;13.700;2022-12-18T02:09:34;101987.72;;;-5.28;100.00
73860;BME280;62197;51.632;13.700;2022-12-18T02:12:13;101990.88;;;-5.21;100.00
73860;BME280;62197;51.632;13.700;2022-12-18T02:15:05;101999.47;;;-5.16;100.00
73860;BME280;62197;51.632;13.700;2022-12-18T02:17:38;101993.03;;;-5.14;100.00
73860;BME280;62197;51.632;13.700;2022-12-18T02:20:22;102002.31;;;-5.05;100.00
73860;BME280;62197;51.632;13.700;2022-12-18T02:23:04;102006.84;;;-5.06;100.00
73860;BME280;62197;51.632;13.700;2022-12-18T02:25:42;102000.16;;;-5.00;100.00
73860;BME280;62197;51.632;13.700;2022-12-18T02:28:13;102002.09;;;-5.02;100.00
73860;BME280;62197;51.632;13.700;2022-12-18T02:30:42;101990.03;;;-5.09;100.00
73860;BME280;62197;51.632;13.700;2022-12-18T02:33:11;101997.13;;;-5.08;100.00
73860;BME280;62197;51.632;13.700;2022-12-18T02:35:38;101988.94;;;-5.19;100.00
73860;BME280;62197;51.632;13.700;2022-12-18T02:38:05;101999.47;;;-5.16;100.00
73860;BME280;62197;51.632;13.700;2022-12-18T02:40:31;101997.75;;;-5.17;100.00
73860;BME280;62197;51.632;13.700;2022-12-18T02:43:13;101977.09;;;-5.17;100.00
73860;BME280;62197;51.632;13.700;2022-12-18T02:45:52;101998.53;;;-5.15;100.00
73860;BME280;62197;51.632;13.700;2022-12-18T02:48:23;101995.25;;;-5.20;100.00
73860;BME280;62197;51.632;13.700;2022-12-18T02:51:00;102001.63;;;-5.21;100.00
73860;BME280;62197;51.632;13.700;2022-12-18T02:53:37;101999.47;;;-5.16;100.00
73860;BME280;62197;51.632;13.700;2022-12-18T02:56:11;101993.56;;;-5.21;100.00
73860;BME280;62197;51.632;13.700;2022-12-18T02:59:12;101999.59;;;-5.18;100.00
73860;BME280;62197;51.632;13.700;2022-12-18T03:01:42;101999.28;;;-5.13;100.00
73860;BME280;62197;51.632;13.700;2022-12-18T03:04:17;101998.53;;;-5.15;100.00
73860;BME280;62197;51.632;13.700;2022-12-18T03:06:49;101996.13;;;-5.20;100.00
73860;BME280;62197;51.632;13.700;2022-12-18T03:09:20;101991.50;;;-5.30;100.00
73860;BME280;62197;51.632;13.700;2022-12-18T03:11:54;101997.28;;;-5.36;100.00
73860;BME280;62197;51.632;13.700;2022-12-18T03:14:40;102002.25;;;-5.30;100.00
73860;BME280;62197;51.632;13.700;2022-12-18T03:17:10;101999.50;;;-5.43;100.00
73860;BME280;62197;51.632;13.700;2022-12-18T03:19:40;101995.81;;;-5.55;100.00
73860;BME280;62197;51.632;13.700;2022-12-18T03:22:07;102004.25;;;-5.46;100.00
73860;BME280;62197;51.632;13.700;2022-12-18T03:24:33;101997.88;;;-5.45;100.00
73860;BME280;62197;51.632;13.700;2022-12-18T03:27:06;102013.06;;;-5.44;100.00
73860;BME280;62197;51.632;13.700;2022-12-18T03:29:38;102009.41;;;-5.43;100.00
73860;BME280;62197;51.632;13.700;2022-12-18T03:32:11;102023.31;;;-5.37;100.00
73860;BME280;62197;51.632;13.700;2022-12-18T03:34:40;102012.09;;;-5.43;100.00
73860;BME280;62197;51.632;13.700;2022-12-18T03:37:07;102006.81;;;-5.45;100.00
73860;BME280;62197;51.632;13.700;2022-12-18T03:39:34;102023.09;;;-5.34;100.00
73860;BME280;62197;51.632;13.700;2022-12-18T03:45:02;102021.13;;;-5.44;100.00
73860;BME280;62197;51.632;13.700;2022-12-18T03:47:34;102029.97;;;-5.42;100.00
73860;BME280;62197;51.632;13.700;2022-12-18T03:53:16;102034.00;;;-5.50;100.00
73860;BME280;62197;51.632;13.700;2022-12-18T03:55:43;102033.97;;;-5.62;100.00
73860;BME280;62197;51.632;13.700;2022-12-18T03:58:11;102025.41;;;-5.69;100.00
73860;BME280;62197;51.632;13.700;2022-12-18T04:00:38;102022.47;;;-5.78;100.00
73860;BME280;62197;51.632;13.700;2022-12-18T04:03:04;102042.22;;;-5.65;100.00
73860;BME280;62197;51.632;13.700;2022-12-18T04:05:33;102042.50;;;-5.56;100.00
73860;BME280;62197;51.632;13.700;2022-12-18T04:08:00;102024.09;;;-5.62;100.00
73860;BME280;62197;51.632;13.700;2022-12-18T04:10:26;102047.66;;;-5.53;100.00
73860;BME280;62197;51.632;13.700;2022-12-18T04:12:55;102042.78;;;-5.60;100.00
73860;BME280;62197;51.632;13.700;2022-12-18T04:15:21;102042.41;;;-5.54;100.00
73860;BME280;62197;51.632;13.700;2022-12-18T04:17:48;102058.13;;;-5.48;100.00
73860;BME280;62197;51.632;13.700;2022-12-18T04:20:13;102067.66;;;-5.57;100.00
73860;BME280;62197;51.632;13.700;2022-12-18T04:22:39;102052.81;;;-5.76;100.00
73860;BME280;62197;51.632;13.700;2022-12-18T04:25:05;102056.16;;;-5.73;100.00
73860;BME280;62197;51.632;13.700;2022-12-18T04:27:30;102060.38;;;-5.69;100.00
73860;BME280;62197;51.632;13.700;2022-12-18T04:29:55;102050.78;;;-5.73;100.00
73860;BME280;62197;51.632;13.700;2022-12-18T04:32:21;102062.50;;;-5.74;100.00
73860;BME280;62197;51.632;13.700;2022-12-18T04:34:46;102057.13;;;-5.74;100.00
73860;BME280;62197;51.632;13.700;2022-12-18T04:37:12;102058.66;;;-5.70;100.00
73860;BME280;62197;51.632;13.700;2022-12-18T04:39:37;102061.91;;;-5.65;100.00
73860;BME280;62197;51.632;13.700;2022-12-18T04:42:02;102051.91;;;-5.63;100.00
73860;BME280;62197;51.632;13.700;2022-12-18T04:44:28;102055.19;;;-5.58;100.00
73860;BME280;62197;51.632;13.700;2022-12-18T04:46:53;102041.94;;;-5.61;100.00
73860;BME280;62197;51.632;13.700;2022-12-18T04:49:18;102054.44;;;-5.60;100.00
73860;BME280;62197;51.632;13.700;2022-12-18T04:51:44;102046.00;;;-5.68;100.00
73860;BME280;62197;51.632;13.700;2022-12-18T04:54:09;102063.25;;;-5.58;100.00
73860;BME280;62197;51.632;13.700;2022-12-18T04:56:35;102053.34;;;-5.57;100.00
73860;BME280;62197;51.632;13.700;2022-12-18T04:59:00;102054.03;;;-5.54;100.00
73860;BME280;62197;51.632;13.700;2022-12-18T05:01:25;102046.69;;;-5.52;100.00
73860;BME280;62197;51.632;13.700;2022-12-18T05:03:51;102035.28;;;-5.55;100.00
73860;BME280;62197;51.632;13.700;2022-12-18T05:06:16;102040.41;;;-5.65;100.00
73860;BME280;62197;51.632;13.700;2022-12-18T05:08:41;102045.84;;;-5.52;100.00
73860;BME280;62197;51.632;13.700;2022-12-18T05:11:11;102059.75;;;-5.45;100.00
73860;BME280;62197;51.632;13.700;2022-12-18T05:13:37;102051.66;;;-5.45;100.00
73860;BME280;62197;51.632;13.700;2022-12-18T05:16:03;102053.81;;;-5.51;100.00
73860;BME280;62197;51.632;13.700;2022-12-18T05:18:29;102050.34;;;-5.53;100.00
73860;BME280;62197;51.632;13.700;2022-12-18T05:20:54;102057.44;;;-5.52;100.00
73860;BME280;62197;51.632;13.700;2022-12-18T05:23:21;102058.81;;;-5.59;100.00
73860;BME280;62197;51.632;13.700;2022-12-18T05:25:51;102061.72;;;-5.62;100.00
73860;BME280;62197;51.632;13.700;2022-12-18T05:28:17;102057.25;;;-5.75;100.00
73860;BME280;62197;51.632;13.700;2022-12-18T05:30:47;102071.75;;;-5.78;100.00
73860;BME280;62197;51.632;13.700;2022-12-18T05:33:13;102078.66;;;-5.74;100.00
73860;BME280;62197;51.632;13.700;2022-12-18T05:35:38;102087.84;;;-5.64;100.00
73860;BME280;62197;51.632;13.700;2022-12-18T05:38:03;102084.06;;;-5.61;100.00
73860;BME280;62197;51.632;13.700;2022-12-18T05:40:29;102068.66;;;-5.72;100.00
73860;BME280;62197;51.632;13.700;2022-12-18T05:42:54;102086.88;;;-5.63;100.00
73860;BME280;62197;51.632;13.700;2022-12-18T05:45:19;102076.22;;;-5.64;100.00
73860;BME280;62197;51.632;13.700;2022-12-18T05:47:45;102073.94;;;-5.70;100.00
73860;BME280;62197;51.632;13.700;2022-12-18T05:50:10;102073.66;;;-5.80;100.00
73860;BME280;62197;51.632;13.700;2022-12-18T05:52:36;102084.13;;;-5.75;100.00
73860;BME280;62197;51.632;13.700;2022-12-18T05:55:01;102089.00;;;-5.68;100.00
73860;BME280;62197;51.632;13.700;2022-12-18T05:57:27;102085.84;;;-5.74;100.00
73860;BME280;62197;51.632;13.700;2022-12-18T05:59:52;102085.56;;;-5.70;100.00
73860;BME280;62197;51.632;13.700;2022-12-18T06:02:17;102079.78;;;-5.64;100.00
73860;BME280;62197;51.632;13.700;2022-12-18T06:04:43;102088.50;;;-5.60;100.00
73860;BME280;62197;51.632;13.700;2022-12-18T06:07:08;102094.66;;;-5.58;100.00
73860;BME280;62197;51.632;13.700;2022-12-18T06:09:33;102086.88;;;-5.63;100.00
73860;BME280;62197;51.632;13.700;2022-12-18T06:11:59;102091.31;;;-5.62;100.00
73860;BME280;62197;51.632;13.700;2022-12-18T06:14:24;102089.19;;;-5.71;100.00
73860;BME280;62197;51.632;13.700;2022-12-18T06:16:50;102099.00;;;-5.70;100.00
73860;BME280;62197;51.632;13.700;2022-12-18T06:19:16;102108.41;;;-5.77;100.00
73860;BME280;62197;51.632;13.700;2022-12-18T06:21:42;102103.78;;;-5.75;100.00
73860;BME280;62197;51.632;13.700;2022-12-18T06:24:07;102118.88;;;-5.72;100.00
73860;BME280;62197;51.632;13.700;2022-12-18T06:26:33;102122.22;;;-5.69;100.00
73860;BME280;62197;51.632;13.700;2022-12-18T06:28:58;102110.53;;;-5.68;100.00
73860;BME280;62197;51.632;13.700;2022-12-18T06:31:24;102111.19;;;-5.64;100.00
73860;BME280;62197;51.632;13.700;2022-12-18T06:33:49;102099.56;;;-5.65;100.00
73860;BME280;62197;51.632;13.700;2022-12-18T06:36:15;102115.50;;;-5.62;100.00
73860;BME280;62197;51.632;13.700;2022-12-18T06:38:42;102129.91;;;-5.63;100.00
73860;BME280;62197;51.632;13.700;2022-12-18T06:41:10;102121.06;;;-5.65;100.00
73860;BME280;62197;51.632;13.700;2022-12-18T06:43:35;102126.34;;;-5.63;100.00
73860;BME280;62197;51.632;13.700;2022-12-18T06:46:02;102126.66;;;-5.68;100.00
73860;BME280;62197;51.632;13.700;2022-12-18T06:48:28;102132.22;;;-5.71;100.00
73860;BME280;62197;51.632;13.700;2022-12-18T06:50:53;102125.56;;;-5.65;100.00
73860;BME280;62197;51.632;13.700;2022-12-18T06:53:18;102115.28;;;-5.59;100.00
73860;BME280;62197;51.632;13.700;2022-12-18T06:55:44;102115.28;;;-5.59;100.00
73860;BME280;62197;51.632;13.700;2022-12-18T06:58:09;102131.81;;;-5.65;100.00
73860;BME280;62197;51.632;13.700;2022-12-18T07:00:35;102132.78;;;-5.66;100.00
73860;BME280;62197;51.632;13.700;2022-12-18T07:03:00;102138.94;;;-5.64;100.00
73860;BME280;62197;51.632;13.700;2022-12-18T07:05:25;102122.81;;;-5.78;100.00
73860;BME280;62197;51.632;13.700;2022-12-18T07:07:51;102154.69;;;-5.58;100.00
73860;BME280;62197;51.632;13.700;2022-12-18T07:10:16;102157.38;;;-5.58;100.00
73860;BME280;62197;51.632;13.700;2022-12-18T07:12:41;102162.44;;;-5.53;100.00
73860;BME280;62197;51.632;13.700;2022-12-18T07:15:07;102142.97;;;-5.71;100.00
73860;BME280;62197;51.632;13.700;2022-12-18T07:17:32;102161.28;;;-5.63;100.00
73860;BME280;62197;51.632;13.700;2022-12-18T07:19:58;102157.84;;;-5.65;100.00
73860;BME280;62197;51.632;13.700;2022-12-18T07:22:25;102151.78;;;-5.69;100.00
73860;BME280;62197;51.632;13.700;2022-12-18T07:24:50;102156.78;;;-5.63;100.00
73860;BME280;62197;51.632;13.700;2022-12-18T07:27:16;102153.66;;;-5.69;100.00
73860;BME280;62197;51.632;13.700;2022-12-18T07:29:41;102169.84;;;-5.71;100.00
73860;BME280;62197;51.632;13.700;2022-12-18T07:32:07;102179.34;;;-5.65;100.00
73860;BME280;62197;51.632;13.700;2022-12-18T07:34:32;102170.06;;;-5.74;100.00
73860;BME280;62197;51.632;13.700;2022-12-18T07:36:58;102181.31;;;-5.67;100.00
73860;BME280;62197;51.632;13.700;2022-12-18T07:39:23;102171.22;;;-5.64;100.00
73860;BME280;62197;51.632;13.700;2022-12-18T07:41:48;102175.72;;;-5.64;100.00
73860;BME280;62197;51.632;13.700;2022-12-18T07:44:34;102162.94;;;-5.75;100.00
73860;BME280;62197;51.632;13.700;2022-12-18T07:46:59;102178.13;;;-5.74;100.00
73860;BME280;62197;51.632;13.700;2022-12-18T07:49:24;102175.22;;;-5.71;100.00
73860;BME280;62197;51.632;13.700;2022-12-18T07:51:50;102183.69;;;-5.63;100.00
73860;BME280;62197;51.632;13.700;2022-12-18T07:54:15;102195.22;;;-5.61;100.00
73860;BME280;62197;51.632;13.700;2022-12-18T07:56:41;102168.31;;;-5.75;100.00
73860;BME280;62197;51.632;13.700;2022-12-18T07:59:06;102159.69;;;-5.66;100.00
73860;BME280;62197;51.632;13.700;2022-12-18T08:01:33;102167.66;;;-5.64;100.00
73860;BME280;62197;51.632;13.700;2022-12-18T08:03:58;102139.50;;;-5.73;100.00
73860;BME280;62197;51.632;13.700;2022-12-18T08:06:24;102150.66;;;-5.65;100.00
73860;BME280;62197;51.632;13.700;2022-12-18T08:08:51;102132.22;;;-5.71;100.00
73860;BME280;62197;51.632;13.700;2022-12-18T08:11:16;102151.13;;;-5.58;100.00
73860;BME280;62197;51.632;13.700;2022-12-18T08:13:42;102163.09;;;-5.50;100.00
73860;BME280;62197;51.632;13.700;2022-12-18T08:16:07;102158.16;;;-5.56;100.00
73860;BME280;62197;51.632;13.700;2022-12-18T08:18:33;102164.38;;;-5.55;100.00
73860;BME280;62197;51.632;13.700;2022-12-18T08:21:17;102173.88;;;-5.50;100.00
73860;BME280;62197;51.632;13.700;2022-12-18T08:23:43;102174.25;;;-5.41;100.00
73860;BME280;62197;51.632;13.700;2022-12-18T08:26:13;102189.44;;;-5.40;100.00
73860;BME280;62197;51.632;13.700;2022-12-18T08:28:38;102182.31;;;-5.41;100.00
73860;BME280;62197;51.632;13.700;2022-12-18T08:31:04;102179.84;;;-5.44;100.00
73860;BME280;62197;51.632;13.700;2022-12-18T08:33:30;102181.28;;;-5.39;100.00
73860;BME280;62197;51.632;13.700;2022-12-18T08:35:55;102177.97;;;-5.30;100.00
73860;BME280;62197;51.632;13.700;2022-12-18T08:38:21;102183.28;;;-5.28;100.00
73860;BME280;62197;51.632;13.700;2022-12-18T08:40:47;102171.69;;;-5.16;100.00
73860;BME280;62197;51.632;13.700;2022-12-18T08:43:13;102162.28;;;-5.09;100.00
73860;BME280;62197;51.632;13.700;2022-12-18T08:45:57;102163.59;;;-5.02;100.00
73860;BME280;62197;51.632;13.700;2022-12-18T08:48:22;102160.66;;;-5.12;99.70
73860;BME280;62197;51.632;13.700;2022-12-18T08:50:58;102177.41;;;-4.94;99.78
73860;BME280;62197;51.632;13.700;2022-12-18T08:53:24;102181.66;;;-4.90;99.85
73860;BME280;62197;51.632;13.700;2022-12-18T08:55:49;102177.56;;;-4.83;99.21
73860;BME280;62197;51.632;13.700;2022-12-18T08:58:15;102179.19;;;-4.81;98.43
73860;BME280;62197;51.632;13.700;2022-12-18T09:00:40;102163.22;;;-4.84;98.05
73860;BME280;62197;51.632;13.700;2022-12-18T09:03:11;102185.66;;;-4.83;98.90
73860;BME280;62197;51.632;13.700;2022-12-18T09:05:37;102185.09;;;-4.88;98.86
73860;BME280;62197;51.632;13.700;2022-12-18T09:08:02;102179.19;;;-4.81;98.84
73860;BME280;62197;51.632;13.700;2022-12-18T09:10:27;102181.38;;;-4.73;97.79
73860;BME280;62197;51.632;13.700;2022-12-18T09:12:53;102200.25;;;-4.61;97.48
73860;BME280;62197;51.632;13.700;2022-12-18T09:15:18;102189.56;;;-4.75;97.67
73860;BME280;62197;51.632;13.700;2022-12-18T09:17:44;102199.31;;;-4.60;97.34
73860;BME280;62197;51.632;13.700;2022-12-18T09:20:09;102193.75;;;-4.44;96.24
73860;BME280;62197;51.632;13.700;2022-12-18T09:22:34;102200.53;;;-4.51;96.89
73860;BME280;62197;51.632;13.700;2022-12-18T09:25:00;102216.22;;;-4.31;96.00
73860;BME280;62197;51.632;13.700;2022-12-18T09:27:25;102219.66;;;-4.29;96.42
73860;BME280;62197;51.632;13.700;2022-12-18T09:29:51;102225.97;;;-4.42;96.32
73860;BME280;62197;51.632;13.700;2022-12-18T09:32:16;102231.47;;;-4.44;95.91
73860;BME280;62197;51.632;13.700;2022-12-18T09:34:41;102236.81;;;-4.30;95.90
73860;BME280;62197;51.632;13.700;2022-12-18T09:37:07;102234.53;;;-4.36;96.94
73860;BME280;62197;51.632;13.700;2022-12-18T09:39:32;102235.41;;;-0.37;100.00
73860;BME280;62197;51.632;13.700;2022-12-18T09:41:58;102244.00;;;0.32;100.00
73860;BME280;62197;51.632;13.700;2022-12-18T09:44:33;102235.09;;;1.01;98.55
73860;BME280;62197;51.632;13.700;2022-12-18T09:47:23;102222.56;;;1.19;83.46
73860;BME280;62197;51.632;13.700;2022-12-18T09:49:53;102215.63;;;1.55;87.26
73860;BME280;62197;51.632;13.700;2022-12-18T09:52:43;102218.81;;;1.20;81.99
73860;BME280;62197;51.632;13.700;2022-12-18T09:55:28;102202.97;;;1.25;81.47
73860;BME280;62197;51.632;13.700;2022-12-18T09:58:00;102189.66;;;0.52;80.79
73860;BME280;62197;51.632;13.700;2022-12-18T10:00:27;102201.38;;;1.13;84.27
73860;BME280;62197;51.632;13.700;2022-12-18T10:03:01;102170.41;;;1.05;78.82
73860;BME280;62197;51.632;13.700;2022-12-18T10:05:39;102171.22;;;0.46;81.88
73860;BME280;62197;51.632;13.700;2022-12-18T10:17:03;102153.34;;;1.42;76.26
73860;BME280;62197;51.632;13.700;2022-12-18T10:19:41;102138.69;;;1.34;74.77
73860;BME280;62197;51.632;13.700;2022-12-18T10:22:33;102156.75;;;2.02;76.18
73860;BME280;62197;51.632;13.700;2022-12-18T10:26:17;102152.38;;;0.94;77.40
73860;BME280;62197;51.632;13.700;2022-12-18T10:28:16;102145.19;;;1.61;76.19
73860;BME280;62197;51.632;13.700;2022-12-18T10:30:43;102144.28;;;0.64;75.54
73860;BME280;62197;51.632;13.700;2022-12-18T10:33:13;102130.38;;;0.07;78.98
73860;BME280;62197;51.632;13.700;2022-12-18T10:35:41;102149.63;;;0.84;77.41
73860;BME280;62197;51.632;13.700;2022-12-18T10:38:27;102136.72;;;1.83;73.71
73860;BME280;62197;51.632;13.700;2022-12-18T10:43:47;102131.00;;;1.48;75.03
73860;BME280;62197;51.632;13.700;2022-12-18T10:46:19;102129.53;;;1.06;71.99
73860;BME280;62197;51.632;13.700;2022-12-18T10:48:50;102131.06;;;-0.22;74.38
73860;BME280;62197;51.632;13.700;2022-12-18T10:51:42;102131.13;;;0.09;79.56
73860;BME280;62197;51.632;13.700;2022-12-18T10:54:17;102120.13;;;1.29;74.68
73860;BME280;62197;51.632;13.700;2022-12-18T10:56:43;102113.03;;;0.49;71.33
73860;BME280;62197;51.632;13.700;2022-12-18T10:59:10;102116.78;;;-1.19;77.59
73860;BME280;62197;51.632;13.700;2022-12-18T11:01:53;102106.31;;;-2.23;82.21
73860;BME280;62197;51.632;13.700;2022-12-18T11:04:24;102099.41;;;-2.27;83.61
73860;BME280;62197;51.632;13.700;2022-12-18T11:09:22;102100.66;;;-2.65;86.51
73860;BME280;62197;51.632;13.700;2022-12-18T11:11:49;102107.63;;;-2.63;86.35
73860;BME280;62197;51.632;13.700;2022-12-18T11:14:21;102097.09;;;-2.55;86.60
73860;BME280;62197;51.632;13.700;2022-12-18T11:16:48;102087.44;;;-2.46;85.77
73860;BME280;62197;51.632;13.700;2022-12-18T11:21:46;102096.06;;;-2.30;86.19
73860;BME280;62197;51.632;13.700;2022-12-18T11:24:31;102096.91;;;-2.41;86.14
73860;BME280;62197;51.632;13.700;2022-12-18T11:26:57;102097.69;;;-2.28;85.83
73860;BME280;62197;51.632;13.700;2022-12-18T11:29:28;102084.13;;;-2.50;87.17
73860;BME280;62197;51.632;13.700;2022-12-18T11:34:51;102098.91;;;-2.66;87.27
73860;BME280;62197;51.632;13.700;2022-12-18T11:37:18;102094.13;;;-2.63;87.07
73860;BME280;62197;51.632;13.700;2022-12-18T11:39:56;102097.81;;;-2.64;86.93
73860;BME280;62197;51.632;13.700;2022-12-18T11:42:39;102101.81;;;-3.04;88.77
73860;BME280;62197;51.632;13.700;2022-12-18T11:47:46;102070.66;;;-2.97;88.42
73860;BME280;62197;51.632;13.700;2022-12-18T11:50:24;102086.91;;;-2.86;88.26
73860;BME280;62197;51.632;13.700;2022-12-18T11:52:50;102103.44;;;-2.67;88.17
73860;BME280;62197;51.632;13.700;2022-12-18T11:55:41;102099.50;;;-2.28;86.73
73860;BME280;62197;51.632;13.700;2022-12-18T11:58:48;102088.84;;;-2.19;86.04
73860;BME280;62197;51.632;13.700;2022-12-18T12:07:22;102092.84;;;-0.71;79.55
73860;BME280;62197;51.632;13.700;2022-12-18T12:16:17;102108.56;;;0.87;71.15
73860;BME280;62197;51.632;13.700;2022-12-18T12:21:42;102113.22;;;0.27;72.61
73860;BME280;62197;51.632;13.700;2022-12-18T12:26:58;102104.97;;;0.38;74.04
73860;BME280;62197;51.632;13.700;2022-12-18T12:29:54;102097.63;;;-0.02;74.33
73860;BME280;62197;51.632;13.700;2022-12-18T12:38:00;102097.63;;;0.59;72.38
73860;BME280;62197;51.632;13.700;2022-12-18T12:40:33;102115.31;;;0.44;72.63
73860;BME280;62197;51.632;13.700;2022-12-18T12:43:15;102127.41;;;0.70;71.50
73860;BME280;62197;51.632;13.700;2022-12-18T12:45:52;102113.19;;;-0.24;74.78
73860;BME280;62197;51.632;13.700;2022-12-18T12:51:13;102108.09;;;0.63;72.07
73860;BME280;62197;51.632;13.700;2022-12-18T12:53:41;102092.91;;;1.10;70.01
73860;BME280;62197;51.632;13.700;2022-12-18T12:56:09;102091.72;;;1.03;70.70
73860;BME280;62197;51.632;13.700;2022-12-18T13:04:18;102090.28;;;1.95;67.54
73860;BME280;62197;51.632;13.700;2022-12-18T13:07:12;102085.16;;;0.96;69.33
73860;BME280;62197;51.632;13.700;2022-12-18T13:13:04;102094.69;;;0.71;70.63
73860;BME280;62197;51.632;13.700;2022-12-18T13:15:42;102077.13;;;0.06;73.81
73860;BME280;62197;51.632;13.700;2022-12-18T13:20:36;102074.25;;;0.77;71.25
73860;BME280;62197;51.632;13.700;2022-12-18T13:25:56;102097.88;;;0.46;71.33
73860;BME280;62197;51.632;13.700;2022-12-18T13:34:20;102081.22;;;-1.36;78.49
73860;BME280;62197;51.632;13.700;2022-12-18T13:36:46;102084.44;;;-1.64;79.72
73860;BME280;62197;51.632;13.700;2022-12-18T13:41:47;102084.94;;;-1.82;81.87
73860;BME280;62197;51.632;13.700;2022-12-18T13:44:27;102094.09;;;-1.18;79.85
73860;BME280;62197;51.632;13.700;2022-12-18T13:46:55;102078.50;;;-1.36;79.38
73860;BME280;62197;51.632;13.700;2022-12-18T13:49:31;102096.50;;;-1.57;80.65
73860;BME280;62197;51.632;13.700;2022-12-18T13:52:01;102088.03;;;-0.99;78.96
73860;BME280;62197;51.632;13.700;2022-12-18T13:54:37;102088.47;;;-1.37;80.08
73860;BME280;62197;51.632;13.700;2022-12-18T13:57:06;102097.50;;;-1.69;80.92
73860;BME280;62197;51.632;13.700;2022-12-18T13:59:50;102092.81;;;-2.12;82.56
73860;BME280;62197;51.632;13.700;2022-12-18T14:02:27;102090.50;;;-2.40;83.24
73860;BME280;62197;51.632;13.700;2022-12-18T14:04:53;102078.78;;;-2.97;86.04
73860;BME280;62197;51.632;13.700;2022-12-18T14:07:23;102091.81;;;-3.15;87.63